createdAt,value
2022-11-25T00:00:54.947Z,6.30
2022-11-25T00:03:21.629Z,6.30
2022-11-25T00:05:48.986Z,6.30
2022-11-25T00:08:15.602Z,6.30
2022-11-25T00:10:42.854Z,6.30
2022-11-25T00:13:09.474Z,6.30
2022-11-25T00:15:36.847Z,6.30
2022-11-25T00:18:03.502Z,6.30
2022-11-25T00:20:30.783Z,6.40
2022-11-25T00:22:57.386Z,6.40
2022-11-25T00:25:24.631Z,6.40
2022-11-25T00:27:52.891Z,6.40
2022-11-25T00:30:20.335Z,6.40
2022-11-25T00:32:47.023Z,6.40
2022-11-25T00:35:14.330Z,6.50
2022-11-25T00:37:40.940Z,6.50
2022-11-25T00:40:08.940Z,6.60
2022-11-25T00:42:54.007Z,6.60
2022-11-25T00:45:21.311Z,6.60
2022-11-25T00:47:47.907Z,6.70
2022-11-25T00:50:18.444Z,6.70
2022-11-25T00:52:45.085Z,6.70
2022-11-25T00:55:12.572Z,6.80
2022-11-25T00:57:39.161Z,6.80
2022-11-25T01:00:07.436Z,6.80
2022-11-25T01:02:34.097Z,6.80
2022-11-25T01:05:01.460Z,6.90
2022-11-25T01:07:28.097Z,6.90
2022-11-25T01:09:55.984Z,6.90
2022-11-25T01:12:24.525Z,6.90
2022-11-25T01:14:51.781Z,6.90
2022-11-25T01:17:18.379Z,6.90
2022-11-25T01:19:45.811Z,6.90
2022-11-25T01:22:12.549Z,7.00
2022-11-25T01:24:42.542Z,7.00
2022-11-25T01:27:09.794Z,7.00
2022-11-25T01:29:36.385Z,6.90
2022-11-25T01:32:03.852Z,6.90
2022-11-25T01:34:32.361Z,6.90
2022-11-25T01:37:00.167Z,6.90
2022-11-25T01:39:31.943Z,7.00
2022-11-25T01:42:01.287Z,7.00
2022-11-25T01:44:30.371Z,7.00
2022-11-25T01:47:12.942Z,7.10
2022-11-25T01:49:49.062Z,7.10
2022-11-25T01:52:28.306Z,7.10
2022-11-25T01:55:05.284Z,7.10
2022-11-25T01:57:39.513Z,7.20
2022-11-25T02:00:09.236Z,7.30
2022-11-25T02:02:49.694Z,7.30
2022-11-25T02:05:35.691Z,7.30
2022-11-25T02:08:05.475Z,7.30
2022-11-25T02:10:33.583Z,7.30
2022-11-25T02:13:03.379Z,7.30
2022-11-25T02:15:33.231Z,7.40
2022-11-25T02:18:00.519Z,7.40
2022-11-25T02:20:27.619Z,7.40
2022-11-25T02:23:25.831Z,7.40
2022-11-25T02:25:54.784Z,7.40
2022-11-25T02:28:27.774Z,7.50
2022-11-25T02:30:54.720Z,7.50
2022-11-25T02:33:23.753Z,7.50
2022-11-25T02:35:56.700Z,7.60
2022-11-25T02:38:44.396Z,7.60
2022-11-25T02:41:19.474Z,7.60
2022-11-25T02:43:51.265Z,7.60
2022-11-25T02:46:23.303Z,7.60
2022-11-25T02:51:44.659Z,7.50
2022-11-25T02:54:14.221Z,7.60
2022-11-25T02:56:41.678Z,7.60
2022-11-25T02:59:09.423Z,7.60
2022-11-25T03:01:38.293Z,7.60
2022-11-25T03:04:07.694Z,7.60
2022-11-25T03:06:35.219Z,7.60
2022-11-25T03:09:02.536Z,7.60
2022-11-25T03:11:49.042Z,7.60
2022-11-25T03:14:15.822Z,7.60
2022-11-25T03:16:43.669Z,7.50
2022-11-25T03:19:11.119Z,7.50
2022-11-25T03:21:37.799Z,7.50
2022-11-25T03:24:05.483Z,7.60
2022-11-25T03:26:32.200Z,7.60
2022-11-25T03:28:59.495Z,7.60
2022-11-25T03:31:27.021Z,7.60
2022-11-25T03:33:55.892Z,7.60
2022-11-25T03:36:22.588Z,7.70
2022-11-25T03:38:50.045Z,7.70
2022-11-25T03:41:17.304Z,7.70
2022-11-25T03:43:44.586Z,7.60
2022-11-25T03:46:11.588Z,7.60
2022-11-25T03:48:39.137Z,7.60
2022-11-25T03:51:07.566Z,7.60
2022-11-25T03:53:35.416Z,7.60
2022-11-25T03:56:04.740Z,7.60
2022-11-25T03:58:32.306Z,7.60
2022-11-25T04:01:03.468Z,7.60
2022-11-25T04:03:31.596Z,7.60
2022-11-25T04:05:58.916Z,7.60
2022-11-25T04:08:27.561Z,7.60
2022-11-25T04:10:55.013Z,7.70
2022-11-25T04:13:25.262Z,7.70
2022-11-25T04:15:52.729Z,7.70
2022-11-25T04:18:21.582Z,7.70
2022-11-25T04:20:52.005Z,7.70
2022-11-25T04:23:19.429Z,7.70
2022-11-25T04:26:00.023Z,7.70
2022-11-25T04:28:34.658Z,7.70
2022-11-25T04:31:06.279Z,7.70
2022-11-25T04:33:34.374Z,7.70
2022-11-25T04:36:01.378Z,7.70
2022-11-25T04:38:29.326Z,7.70
2022-11-25T04:40:58.179Z,7.60
2022-11-25T04:43:27.739Z,7.60
2022-11-25T04:46:13.984Z,7.60
2022-11-25T04:48:44.820Z,7.60
2022-11-25T04:51:11.840Z,7.60
2022-11-25T04:53:40.223Z,7.60
2022-11-25T04:56:11.603Z,7.60
2022-11-25T04:59:02.245Z,7.70
2022-11-25T05:01:29.693Z,7.70
2022-11-25T05:04:06.068Z,7.70
2022-11-25T05:06:34.037Z,7.70
2022-11-25T05:09:01.637Z,7.70
2022-11-25T05:11:28.580Z,7.70
2022-11-25T05:13:56.012Z,7.70
2022-11-25T05:16:22.774Z,7.70
2022-11-25T05:18:50.131Z,7.60
2022-11-25T05:21:16.890Z,7.60
2022-11-25T05:23:44.808Z,7.60
2022-11-25T05:26:11.618Z,7.60
2022-11-25T05:28:44.673Z,7.60
2022-11-25T05:31:12.123Z,7.60
2022-11-25T05:33:39.676Z,7.60
2022-11-25T05:36:08.277Z,7.60
2022-11-25T05:38:41.913Z,7.50
2022-11-25T05:41:11.671Z,7.50
2022-11-25T05:43:40.733Z,7.50
2022-11-25T05:46:08.245Z,7.40
2022-11-25T05:48:38.478Z,7.40
2022-11-25T05:51:06.720Z,7.30
2022-11-25T05:53:34.057Z,7.30
2022-11-25T05:56:04.590Z,7.30
2022-11-25T05:58:50.662Z,7.30
2022-11-25T06:01:17.755Z,7.40
2022-11-25T06:03:46.325Z,7.40
2022-11-25T06:06:15.026Z,7.40
2022-11-25T06:08:43.359Z,7.40
2022-11-25T06:11:13.727Z,7.50
2022-11-25T06:13:42.060Z,7.50
2022-11-25T06:16:15.164Z,7.50
2022-11-25T06:18:44.600Z,7.50
2022-11-25T06:21:12.555Z,7.50
2022-11-25T06:23:40.184Z,7.50
2022-11-25T06:26:14.715Z,7.50
2022-11-25T06:28:42.017Z,7.50
2022-11-25T06:31:11.442Z,7.50
2022-11-25T06:33:51.308Z,7.40
2022-11-25T06:36:19.623Z,7.30
2022-11-25T06:38:53.101Z,7.30
2022-11-25T06:41:23.387Z,7.20
2022-11-25T06:43:51.251Z,7.10
2022-11-25T06:46:24.518Z,7.00
2022-11-25T06:48:53.589Z,6.90
2022-11-25T06:51:20.493Z,6.80
2022-11-25T06:53:47.789Z,6.80
2022-11-25T06:56:18.329Z,6.70
2022-11-25T06:58:47.063Z,6.70
2022-11-25T07:01:22.851Z,6.70
2022-11-25T07:03:53.121Z,6.60
2022-11-25T07:06:20.554Z,6.50
2022-11-25T07:08:48.865Z,6.50
2022-11-25T07:11:18.648Z,6.50
2022-11-25T07:13:46.946Z,6.50
2022-11-25T07:16:14.503Z,6.50
2022-11-25T07:18:42.269Z,6.50
2022-11-25T07:21:15.156Z,6.40
2022-11-25T07:23:43.991Z,6.40
2022-11-25T07:26:14.692Z,6.30
2022-11-25T07:28:43.593Z,6.20
2022-11-25T07:31:23.814Z,6.20
2022-11-25T07:33:54.008Z,6.20
2022-11-25T07:36:21.344Z,6.20
2022-11-25T07:38:49.044Z,6.20
2022-11-25T07:41:18.449Z,6.20
2022-11-25T07:43:48.053Z,6.20
2022-11-25T07:46:26.257Z,6.20
2022-11-25T07:48:56.132Z,6.20
2022-11-25T07:51:26.410Z,6.20
2022-11-25T07:53:56.105Z,6.20
2022-11-25T07:56:23.595Z,6.20
2022-11-25T07:58:51.236Z,6.20
2022-11-25T08:01:19.176Z,6.30
2022-11-25T08:03:48.298Z,6.30
2022-11-25T08:06:17.975Z,6.30
2022-11-25T08:08:46.335Z,6.40
2022-11-25T08:11:15.997Z,6.40
2022-11-25T08:13:43.961Z,6.40
2022-11-25T08:16:13.703Z,6.50
2022-11-25T08:18:41.458Z,6.60
2022-11-25T08:21:10.342Z,6.60
2022-11-25T08:23:38.934Z,6.60
2022-11-25T08:26:12.434Z,6.80
2022-11-25T08:28:41.498Z,6.80
2022-11-25T08:31:15.207Z,6.90
2022-11-25T08:33:43.585Z,7.10
2022-11-25T08:36:11.033Z,7.10
2022-11-25T08:38:38.454Z,7.30
2022-11-25T08:41:11.239Z,7.40
2022-11-25T08:43:39.041Z,7.50
2022-11-25T08:46:14.577Z,7.60
2022-11-25T08:48:43.287Z,7.70
2022-11-25T08:51:22.344Z,7.70
2022-11-25T08:53:51.159Z,7.80
2022-11-25T08:56:22.829Z,7.90
2022-11-25T08:58:53.028Z,8.00
2022-11-25T09:01:20.282Z,8.20
2022-11-25T09:03:50.147Z,8.30
2022-11-25T09:06:17.671Z,8.50
2022-11-25T09:08:45.612Z,8.60
2022-11-25T09:11:12.700Z,8.70
2022-11-25T09:13:40.902Z,8.80
2022-11-25T09:16:09.432Z,9.00
2022-11-25T09:18:37.957Z,9.00
2022-11-25T09:21:14.557Z,9.10
2022-11-25T09:23:42.183Z,9.20
2022-11-25T09:26:21.818Z,9.40
2022-11-25T09:28:49.133Z,9.60
2022-11-25T09:31:15.863Z,9.50
2022-11-25T09:33:43.530Z,9.50
2022-11-25T09:36:12.589Z,9.50
2022-11-25T09:38:43.278Z,9.50
2022-11-25T09:41:49.854Z,9.40
2022-11-25T09:45:10.322Z,9.40
2022-11-25T09:47:48.205Z,9.50
2022-11-25T09:50:57.658Z,9.50
2022-11-25T09:53:53.162Z,9.40
2022-11-25T09:56:33.614Z,9.40
2022-11-25T09:59:21.069Z,9.40
2022-11-25T10:01:53.273Z,9.50
2022-11-25T10:04:29.318Z,9.50
2022-11-25T10:07:01.231Z,9.60
2022-11-25T10:09:34.195Z,9.60
2022-11-25T10:12:13.395Z,9.70
2022-11-25T10:14:46.383Z,9.70
2022-11-25T10:17:44.990Z,9.70
2022-11-25T10:20:23.895Z,9.80
2022-11-25T10:23:01.856Z,9.90
2022-11-25T10:25:34.244Z,9.90
2022-11-25T10:28:16.416Z,10.00
2022-11-25T10:31:10.425Z,10.00
2022-11-25T10:33:45.721Z,10.00
2022-11-25T10:36:34.264Z,10.10
2022-11-25T10:39:10.285Z,10.10
2022-11-25T10:41:50.496Z,10.10
2022-11-25T10:44:28.323Z,10.10
2022-11-25T10:47:25.864Z,10.10
2022-11-25T10:50:27.921Z,10.10
2022-11-25T10:53:01.858Z,10.10
2022-11-25T10:55:36.724Z,10.20
2022-11-25T10:58:34.709Z,10.20
2022-11-25T11:01:04.408Z,10.20
2022-11-25T11:03:31.618Z,10.20
2022-11-25T11:05:58.913Z,10.20
2022-11-25T11:08:40.426Z,10.20
2022-11-25T11:11:09.988Z,10.20
2022-11-25T11:13:37.190Z,10.30
2022-11-25T11:16:04.739Z,10.30
2022-11-25T11:18:37.401Z,10.30
2022-11-25T11:21:06.291Z,10.40
2022-11-25T11:23:51.186Z,10.30
2022-11-25T11:26:23.639Z,10.40
2022-11-25T11:28:58.960Z,10.30
2022-11-25T11:31:36.190Z,10.30
2022-11-25T11:34:06.279Z,10.40
2022-11-25T11:36:53.203Z,10.50
2022-11-25T11:39:52.311Z,10.60
2022-11-25T11:42:32.795Z,10.70
2022-11-25T11:45:23.386Z,10.80
2022-11-25T11:48:24.227Z,10.80
2022-11-25T11:50:57.635Z,10.80
2022-11-25T11:53:49.109Z,10.70
2022-11-25T11:56:38.361Z,10.70
2022-11-25T11:59:35.943Z,10.70
2022-11-25T12:02:31.709Z,10.70
2022-11-25T12:05:10.722Z,10.60
2022-11-25T12:07:45.759Z,10.60
2022-11-25T12:10:35.064Z,10.60
2022-11-25T12:13:16.665Z,10.60
2022-11-25T12:16:06.519Z,10.50
2022-11-25T12:18:50.836Z,10.50
2022-11-25T12:22:03.808Z,10.50
2022-11-25T12:24:59.821Z,10.50
2022-11-25T12:27:33.793Z,10.50
2022-11-25T12:30:13.861Z,10.50
2022-11-25T12:32:50.827Z,10.60
2022-11-25T12:35:21.168Z,10.60
2022-11-25T12:37:47.811Z,10.60
2022-11-25T12:40:27.044Z,10.70
2022-11-25T12:43:03.877Z,10.80
2022-11-25T12:45:31.314Z,10.80
2022-11-25T12:47:57.945Z,10.80
2022-11-25T12:50:51.107Z,10.80
2022-11-25T12:53:48.166Z,10.90
2022-11-25T12:56:21.741Z,10.90
2022-11-25T12:59:30.336Z,10.80
2022-11-25T13:02:09.641Z,10.80
2022-11-25T13:04:48.906Z,10.80
2022-11-25T13:07:37.256Z,10.80
2022-11-25T13:10:04.534Z,10.70
2022-11-25T13:12:59.211Z,10.70
2022-11-25T13:15:47.878Z,10.60
2022-11-25T13:18:19.081Z,10.60
2022-11-25T13:20:52.089Z,10.60
2022-11-25T13:23:18.659Z,10.60
2022-11-25T13:25:48.519Z,10.60
2022-11-25T13:28:27.411Z,10.60
2022-11-25T13:30:55.428Z,10.60
2022-11-25T13:33:25.029Z,10.60
2022-11-25T13:35:56.706Z,10.50
2022-11-25T13:38:29.341Z,10.50
2022-11-25T13:41:01.538Z,10.50
2022-11-25T13:43:28.542Z,10.40
2022-11-25T13:45:56.716Z,10.40
2022-11-25T13:48:29.876Z,10.40
2022-11-25T13:51:20.608Z,10.40
2022-11-25T13:54:00.982Z,10.40
2022-11-25T13:56:38.200Z,10.40
2022-11-25T13:59:35.903Z,10.40
2022-11-25T14:02:29.264Z,10.50
2022-11-25T14:05:18.571Z,10.60
2022-11-25T14:08:10.118Z,10.70
2022-11-25T14:11:17.965Z,10.80
2022-11-25T14:14:24.011Z,10.90
2022-11-25T14:16:59.559Z,11.00
2022-11-25T14:19:52.655Z,11.10
2022-11-25T14:22:35.575Z,11.10
2022-11-25T14:25:17.189Z,11.20
2022-11-25T14:27:50.529Z,11.20
2022-11-25T14:30:18.609Z,11.20
2022-11-25T14:32:59.561Z,11.20
2022-11-25T14:35:54.157Z,11.10
2022-11-25T14:38:29.402Z,11.00
2022-11-25T14:41:03.290Z,10.80
2022-11-25T14:43:34.594Z,10.60
2022-11-25T14:46:23.498Z,10.50
2022-11-25T14:49:00.031Z,10.30
2022-11-25T14:51:34.664Z,10.20
2022-11-25T14:54:10.836Z,10.10
2022-11-25T14:56:39.128Z,10.00
2022-11-25T14:59:08.925Z,10.00
2022-11-25T15:01:37.818Z,9.80
2022-11-25T15:04:07.823Z,9.70
2022-11-25T15:06:37.417Z,9.60
2022-11-25T15:09:15.853Z,9.50
2022-11-25T15:11:43.537Z,9.40
2022-11-25T15:14:26.720Z,9.40
2022-11-25T15:16:53.967Z,9.30
2022-11-25T15:19:26.971Z,9.20
2022-11-25T15:22:23.117Z,9.10
2022-11-25T15:24:54.507Z,9.00
2022-11-25T15:27:27.511Z,9.00
2022-11-25T15:29:56.875Z,9.00
2022-11-25T15:32:29.018Z,9.10
2022-11-25T15:34:58.399Z,9.10
2022-11-25T15:37:25.379Z,9.20
2022-11-25T15:40:39.403Z,9.20
2022-11-25T15:43:19.228Z,9.30
2022-11-25T15:45:49.785Z,9.30
2022-11-25T15:48:25.324Z,9.40
2022-11-25T15:50:52.035Z,9.40
2022-11-25T15:53:31.651Z,9.40
2022-11-25T15:56:01.610Z,9.40
2022-11-25T15:58:29.270Z,9.40
2022-11-25T16:01:15.727Z,9.50
2022-11-25T16:03:44.080Z,9.40
2022-11-25T16:06:27.723Z,9.40
2022-11-25T16:08:57.048Z,9.40
2022-11-25T16:11:25.409Z,9.30
2022-11-25T16:13:53.665Z,9.30
2022-11-25T16:16:21.888Z,9.30
2022-11-25T16:19:08.065Z,9.30
2022-11-25T16:21:40.525Z,9.30
2022-11-25T16:24:13.659Z,9.30
2022-11-25T16:26:54.348Z,9.30
2022-11-25T16:29:30.872Z,9.20
2022-11-25T16:31:58.209Z,9.20
2022-11-25T16:34:26.843Z,9.10
2022-11-25T16:36:53.925Z,9.00
2022-11-25T16:39:21.194Z,8.90
2022-11-25T16:42:02.336Z,8.70
2022-11-25T16:44:30.226Z,8.60
2022-11-25T16:46:57.901Z,8.50
2022-11-25T16:49:28.906Z,8.40
2022-11-25T16:51:55.583Z,8.40
2022-11-25T16:54:23.573Z,8.30
2022-11-25T16:56:52.711Z,8.20
2022-11-25T16:59:30.807Z,8.10
2022-11-25T17:01:58.630Z,8.10
2022-11-25T17:04:25.752Z,8.10
2022-11-25T17:07:24.204Z,8.10
2022-11-25T17:09:40.129Z,8.10
2022-11-25T17:12:14.587Z,8.10
2022-11-25T17:14:41.772Z,8.10
2022-11-25T17:17:13.425Z,8.10
2022-11-25T17:19:40.861Z,8.00
2022-11-25T17:22:21.316Z,8.00
2022-11-25T17:24:48.595Z,7.90
2022-11-25T17:27:30.729Z,7.90
2022-11-25T17:30:00.692Z,7.80
2022-11-25T17:32:27.830Z,7.90
2022-11-25T17:34:54.836Z,8.00
2022-11-25T17:37:23.937Z,8.00
2022-11-25T17:39:53.289Z,8.00
2022-11-25T17:42:25.221Z,8.00
2022-11-25T17:44:54.240Z,8.10
2022-11-25T17:47:21.280Z,8.20
2022-11-25T17:49:49.664Z,8.20
2022-11-25T17:52:16.427Z,8.20
2022-11-25T17:54:43.465Z,8.30
2022-11-25T17:57:17.115Z,8.20
2022-11-25T17:59:44.282Z,8.20
2022-11-25T18:02:21.948Z,8.10
2022-11-25T18:04:49.915Z,8.00
2022-11-25T18:07:16.977Z,7.90
2022-11-25T18:09:44.337Z,7.90
2022-11-25T18:12:19.662Z,7.80
2022-11-25T18:14:46.775Z,7.80
2022-11-25T18:17:18.924Z,7.80
2022-11-25T18:19:51.467Z,7.80
2022-11-25T18:22:23.823Z,7.90
2022-11-25T18:24:51.282Z,7.90
2022-11-25T18:27:24.718Z,7.90
2022-11-25T18:29:52.496Z,7.90
2022-11-25T18:32:19.902Z,7.80
2022-11-25T18:34:47.240Z,7.90
2022-11-25T18:37:13.860Z,7.80
2022-11-25T18:39:40.847Z,7.80
2022-11-25T18:42:10.160Z,7.90
2022-11-25T18:44:41.962Z,7.90
2022-11-25T18:47:12.580Z,8.00
2022-11-25T18:49:39.702Z,8.10
2022-11-25T18:52:06.392Z,8.20
2022-11-25T18:54:33.324Z,8.20
2022-11-25T18:57:00.069Z,8.10
2022-11-25T18:59:34.108Z,8.10
2022-11-25T19:02:01.130Z,8.00
2022-11-25T19:04:28.589Z,8.00
2022-11-25T19:06:55.542Z,8.00
2022-11-25T19:09:22.128Z,8.00
2022-11-25T19:11:54.610Z,7.90
2022-11-25T19:14:35.834Z,7.90
2022-11-25T19:17:07.654Z,7.80
2022-11-25T19:19:36.353Z,7.70
2022-11-25T19:22:10.021Z,7.60
2022-11-25T19:24:36.914Z,7.50
2022-11-25T19:27:04.449Z,7.50
2022-11-25T19:29:42.186Z,7.40
2022-11-25T19:32:26.792Z,7.40
2022-11-25T19:34:59.421Z,7.30
2022-11-25T19:37:27.267Z,7.30
2022-11-25T19:39:54.231Z,7.20
2022-11-25T19:42:22.539Z,7.10
2022-11-25T19:44:49.154Z,7.10
2022-11-25T19:47:22.026Z,7.10
2022-11-25T19:49:50.863Z,7.10
2022-11-25T19:52:21.275Z,7.00
2022-11-25T19:54:48.067Z,7.00
2022-11-25T19:57:17.907Z,6.90
2022-11-25T19:59:44.748Z,6.90
2022-11-25T20:02:20.754Z,6.80
2022-11-25T20:04:50.347Z,6.80
2022-11-25T20:07:19.414Z,6.70
2022-11-25T20:09:47.389Z,6.70
2022-11-25T20:12:25.715Z,6.70
2022-11-25T20:14:58.798Z,6.70
2022-11-25T20:17:34.520Z,6.70
2022-11-25T20:20:11.461Z,6.60
2022-11-25T20:22:42.247Z,6.60
2022-11-25T20:25:12.617Z,6.60
2022-11-25T20:27:39.588Z,6.60
2022-11-25T20:30:21.912Z,6.60
2022-11-25T20:32:48.848Z,6.60
2022-11-25T20:35:16.373Z,6.60
2022-11-25T20:38:00.326Z,6.50
2022-11-25T20:40:33.673Z,6.50
2022-11-25T20:43:00.300Z,6.50
2022-11-25T20:45:27.677Z,6.50
2022-11-25T20:47:54.406Z,6.40
2022-11-25T20:50:21.969Z,6.40
2022-11-25T20:52:50.231Z,6.40
2022-11-25T20:55:20.590Z,6.30
2022-11-25T20:57:47.822Z,6.30
2022-11-25T21:00:16.651Z,6.30
2022-11-25T21:02:43.346Z,6.30
2022-11-25T21:05:10.438Z,6.30
2022-11-25T21:07:37.274Z,6.30
2022-11-25T21:10:20.210Z,6.20
2022-11-25T21:12:47.366Z,6.20
2022-11-25T21:15:17.267Z,6.20
2022-11-25T21:17:44.256Z,6.20
2022-11-25T21:20:12.655Z,6.10
2022-11-25T21:22:41.863Z,6.10
2022-11-25T21:25:16.940Z,6.10
2022-11-25T21:27:44.925Z,6.10
2022-11-25T21:30:27.407Z,6.00
2022-11-25T21:32:55.985Z,6.00
2022-11-25T21:35:30.499Z,6.00
2022-11-25T21:37:57.587Z,6.00
2022-11-25T21:40:31.508Z,5.90
2022-11-25T21:42:59.300Z,5.90
2022-11-25T21:45:26.248Z,5.90
2022-11-25T21:47:53.006Z,5.90
2022-11-25T21:50:20.669Z,5.90
2022-11-25T21:52:47.393Z,5.80
2022-11-25T21:55:16.473Z,5.80
2022-11-25T21:57:43.365Z,5.80
2022-11-25T22:00:23.744Z,5.70
2022-11-25T22:02:50.811Z,5.70
2022-11-25T22:05:20.873Z,5.70
2022-11-25T22:07:47.912Z,5.70
2022-11-25T22:10:16.666Z,5.70
2022-11-25T22:12:46.431Z,5.70
2022-11-25T22:15:21.402Z,5.70
2022-11-25T22:17:51.143Z,5.70
2022-11-25T22:20:27.227Z,5.70
2022-11-25T22:22:54.626Z,5.70
2022-11-25T22:25:24.710Z,5.70
2022-11-25T22:27:51.797Z,5.70
2022-11-25T22:30:21.945Z,5.70
2022-11-25T22:33:10.425Z,5.70
2022-11-25T22:35:37.818Z,5.60
2022-11-25T22:38:13.387Z,5.60
2022-11-25T22:40:49.902Z,5.60
2022-11-25T22:43:29.978Z,5.60
2022-11-25T22:45:57.585Z,5.60
2022-11-25T22:48:31.248Z,5.60
2022-11-25T22:50:58.628Z,5.60
2022-11-25T22:53:26.037Z,5.60
2022-11-25T22:56:00.213Z,5.60
2022-11-25T22:58:27.488Z,5.60
2022-11-25T23:00:56.639Z,5.60
2022-11-25T23:03:26.942Z,5.60
2022-11-25T23:05:54.508Z,5.60
2022-11-25T23:08:23.883Z,5.60
2022-11-25T23:10:52.940Z,5.60
2022-11-25T23:13:22.939Z,5.60
2022-11-25T23:15:53.403Z,5.60
2022-11-25T23:18:34.017Z,5.60
2022-11-25T23:21:05.320Z,5.50
2022-11-25T23:23:32.165Z,5.50
2022-11-25T23:25:59.799Z,5.50
2022-11-25T23:28:26.505Z,5.50
2022-11-25T23:30:58.722Z,5.40
2022-11-25T23:33:48.791Z,5.40
2022-11-25T23:36:18.040Z,5.40
2022-11-25T23:38:50.299Z,5.40
2022-11-25T23:41:24.142Z,5.40
2022-11-25T23:43:51.317Z,5.40
2022-11-25T23:46:22.938Z,5.40
2022-11-25T23:48:56.391Z,5.40
2022-11-25T23:51:24.689Z,5.40
2022-11-25T23:53:51.927Z,5.40
2022-11-25T23:56:19.548Z,5.40
2022-11-25T23:58:46.565Z,5.40
